METAR Data
IDs: Format: Raw Decoded Include TAF

Data at: 1500 UTC 18 Aug 2019

PAOO 181456Z AUTO 34010KT 10SM CLR 13/06 A3041 RMK AO2 SLP307 T01330056 57012
PAOO 181356Z AUTO 34010KT 10SM CLR 12/06 A3042 RMK AO2 SLP311 T01220061
PAOO 181256Z AUTO 34008KT 10SM CLR 12/08 A3043 RMK AO2 SLP316 T01170078
PAOO 181156Z AUTO 34011KT 10SM CLR 12/08 A3044 RMK AO2 SLP319 T01170083 10156 20111 56005
PAOO 181056Z AUTO 35009KT 10SM CLR 12/08 A3044 RMK AO2 SLP320 T01220083
PAOO 180956Z AUTO 34015KT 10SM CLR 11/08 A3045 RMK AO2 SLP322 T01110083
PAOO 180856Z AUTO 34012KT 10SM CLR 12/08 A3046 RMK AO2 SLP325 T01220083 401830100 58003
PAOO 180756Z AUTO 35015KT 10SM CLR 13/09 A3046 RMK AO2 SLP326 T01280089
PAOO 180656Z AUTO 35015KT 10SM CLR 14/10 A3046 RMK AO2 SLP327 T01390100
PAOO 180556Z AUTO 35008KT 10SM CLR 16/10 A3047 RMK AO2 SLP328 T01560100 10183 20156 58007
PAOO 180456Z AUTO 36010KT 10SM CLR 18/09 A3048 RMK AO2 SLP331 T01780094
PAOO 180356Z AUTO 01012KT 10SM CLR 18/09 A3048 RMK AO2 SLP333 T01780094
PAOO 180256Z AUTO 36010KT 9SM CLR 18/09 A3049 RMK AO2 SLP335 T01780094 58008
PAOO 180156Z AUTO 35013KT 10SM CLR 18/09 A3050 RMK AO2 SLP337 T01780094
PAOO 180056Z AUTO 35013G17KT 10SM CLR 18/09 A3051 RMK AO2 SLP342 T01780089
PAOO 172356Z AUTO 36011KT 10SM CLR 18/09 A3051 RMK AO2 SLP343 T01780094 10178 20128 58007
PAOO 172256Z AUTO 34009KT 10SM CLR 17/09 A3052 RMK AO2 SLP347 T01670089
PAOO 172156Z AUTO 36009KT 10SM CLR 16/08 A3053 RMK AO2 SLP351 T01610078
PAOO 172056Z AUTO 02009KT 10SM CLR 16/08 A3053 RMK AO2 SLP350 T01610083 58002
PAOO 171956Z AUTO 35007KT 10SM CLR 15/08 A3054 RMK AO2 SLP353 T01500078
PAOO 171856Z AUTO 09005KT 10SM CLR 14/07 A3054 RMK AO2 SLP354 T01440072
PAOO 171756Z AUTO 28003KT 10SM CLR 13/07 A3054 RMK AO2 SLP353 T01280072 10128 20100 50002
PAOO 171656Z AUTO 01003KT 10SM CLR 12/08 A3054 RMK AO2 SLP354 T01170083
PAOO 171556Z AUTO VRB05KT 10SM CLR 10/08 A3054 RMK AO2 SLP353 T01000083
PAOO 171519Z AUTO 35006KT 10SM SCT023 SCT041 BKN055 11/09 A3053 RMK AO2
PAOO 171456Z AUTO 35009KT 10SM BKN021 OVC026 12/11 A3054 RMK AO2 SLP351 T01220106 53001
PAOO 171356Z AUTO 34005KT 10SM BKN019 BKN027 OVC065 12/12 A3053 RMK AO2 SLP351 T01220117
PAOO 171334Z AUTO 00000KT 10SM SCT012 BKN017 OVC044 13/12 A3053 RMK AO2
PAOO 171313Z AUTO 36005KT 5SM BR SCT007 OVC013 13/13 A3053 RMK AO2
PAOO 171256Z AUTO 33004KT 10SM BKN007 OVC015 13/13 A3053 RMK AO2 SLP348 T01280128
PAOO 171156Z AUTO 29004KT 4SM BR OVC007 13/13 A3053 RMK AO2 SLP350 60000 T01280128 10133 20128 51004
PAOO 171145Z AUTO 28004KT 7SM BKN007 OVC011 13/13 A3053 RMK AO2 CIG 006V010
PAOO 171135Z AUTO 29005KT 10SM OVC011 13/13 A3053 RMK AO2 CIG 006V015
PAOO 171111Z AUTO 28005KT 6SM BR BKN007 OVC012 13/13 A3053 RMK AO2 CIG 004V011
PAOO 171056Z AUTO 29006KT 3SM BR OVC005 13/13 A3053 RMK AO2 SLP349 T01280128
PAOO 170956Z AUTO 28008KT 10SM OVC005 13/13 A3053 RMK AO2 RAB02E32 CIG 004V008 SLP348 P0000 T01280128
PAOO 170940Z AUTO 28008KT 6SM BR OVC007 13/13 A3053 RMK AO2 RAB02E32 P0000
PAOO 170856Z AUTO 27007KT 10SM OVC005 13/13 A3052 RMK AO2 SLP346 60000 T01280128 401560106 53005
PAOO 170821Z AUTO 27006KT 8SM BKN005 OVC010 13/13 A3052 RMK AO2
PAOO 170756Z AUTO 28005KT 4SM BR OVC003 13/12 A3051 RMK AO2 RAB26E45 SLP343 P0000 T01280122
PAOO 170745Z AUTO 28004KT 4SM BR OVC003 13/13 A3051 RMK AO2 RAB26E45 P0000
PAOO 170656Z AUTO 29005KT 10SM OVC005 13/13 A3051 RMK AO2 SLP343 T01330128
PAOO 170556Z AUTO 27006KT 10SM OVC005 13/13 A3051 RMK AO2 SLP341 T01330128 10156 20133 50001
PAOO 170456Z AUTO 26005KT 3SM BR OVC005 13/13 A3051 RMK AO2 SLP341 T01330128
PAOO 170452Z AUTO 27006KT 3SM BR OVC005 13/13 A3051 RMK AO2
PAOO 170442Z AUTO 27006KT 2 1/2SM BR OVC005 13/13 A3051 RMK AO2
PAOO 170356Z AUTO 27010KT 10SM OVC005 14/13 A3050 RMK AO2 SLP340 T01390128
PAOO 170334Z AUTO 27011KT 9SM OVC005 14/13 A3050 RMK AO2